createdAt,value
2023-03-18T00:01:28.315Z,23.13
2023-03-18T00:03:55.740Z,21.85
2023-03-18T00:06:23.328Z,27.13
2023-03-18T00:08:51.003Z,25.90
2023-03-18T00:11:21.634Z,24.42
2023-03-18T00:13:49.421Z,23.60
2023-03-18T00:16:17.413Z,24.63
2023-03-18T00:18:45.420Z,26.13
2023-03-18T00:21:12.888Z,23.55
2023-03-18T00:23:40.347Z,29.17
2023-03-18T00:26:09.147Z,25.63
2023-03-18T00:28:38.469Z,24.98
2023-03-18T00:31:09.104Z,23.05
2023-03-18T00:33:38.210Z,23.80
2023-03-18T00:36:06.646Z,26.10
2023-03-18T00:38:35.673Z,28.23
2023-03-18T00:41:13.416Z,26.98
2023-03-18T00:43:54.607Z,27.90
2023-03-18T00:46:25.815Z,28.40
2023-03-18T00:48:54.782Z,27.83
2023-03-18T00:51:23.580Z,28.48
2023-03-18T00:53:53.451Z,24.27
2023-03-18T00:56:24.329Z,29.35
2023-03-18T00:58:52.427Z,27.27
2023-03-18T01:01:21.296Z,27.48
2023-03-18T01:03:52.367Z,28.25
2023-03-18T01:06:31.595Z,30.90
2023-03-18T01:09:01.439Z,26.70
2023-03-18T01:11:29.343Z,27.08
2023-03-18T01:13:57.475Z,29.58
2023-03-18T01:16:25.256Z,30.13
2023-03-18T01:18:53.956Z,28.15
2023-03-18T01:21:22.310Z,32.05
2023-03-18T01:23:49.810Z,32.45
2023-03-18T01:26:17.804Z,32.65
2023-03-18T01:28:47.373Z,30.45
2023-03-18T01:31:16.429Z,30.13
2023-03-18T01:33:43.924Z,31.92
2023-03-18T01:36:11.944Z,36.30
2023-03-18T01:38:41.425Z,32.95
2023-03-18T01:41:08.861Z,35.15
2023-03-18T01:43:39.225Z,33.70
2023-03-18T01:46:40.125Z,33.45
2023-03-18T01:49:17.628Z,30.90
2023-03-18T01:51:52.219Z,30.20
2023-03-18T01:54:22.105Z,30.77
2023-03-18T01:56:50.621Z,29.35
2023-03-18T01:59:18.875Z,30.45
2023-03-18T02:01:59.699Z,31.00
2023-03-18T02:04:31.513Z,35.63
2023-03-18T02:07:00.027Z,30.17
2023-03-18T02:09:29.721Z,33.60
2023-03-18T02:11:57.173Z,32.03
2023-03-18T02:14:26.744Z,27.83
2023-03-18T02:16:59.970Z,30.63
2023-03-18T02:19:41.200Z,30.10
2023-03-18T02:22:32.146Z,28.77
2023-03-18T02:25:15.191Z,27.50
2023-03-18T02:27:48.191Z,30.45
2023-03-18T02:30:21.480Z,25.20
2023-03-18T02:32:49.861Z,26.33
2023-03-18T02:35:17.321Z,28.05
2023-03-18T02:37:44.663Z,27.42
2023-03-18T02:40:18.355Z,34.33
2023-03-18T02:42:47.653Z,24.88
2023-03-18T02:46:00.252Z,26.63
2023-03-18T02:48:33.259Z,28.60
2023-03-18T02:51:00.573Z,26.55
2023-03-18T02:53:28.124Z,31.55
2023-03-18T02:55:55.508Z,29.60
2023-03-18T02:58:23.064Z,24.88
2023-03-18T03:00:50.528Z,26.42
2023-03-18T03:03:18.622Z,30.58
2023-03-18T03:05:46.096Z,31.65
2023-03-18T03:08:14.857Z,26.42
2023-03-18T03:10:42.864Z,23.35
2023-03-18T03:13:11.632Z,28.38
2023-03-18T03:15:40.195Z,33.38
2023-03-18T03:18:08.837Z,28.50
2023-03-18T03:20:39.012Z,28.65
2023-03-18T03:23:10.377Z,25.67
2023-03-18T03:25:38.373Z,26.27
2023-03-18T03:28:07.304Z,32.28
2023-03-18T03:30:37.753Z,26.67
2023-03-18T03:33:05.821Z,27.30
2023-03-18T03:35:33.380Z,25.48
2023-03-18T03:38:00.879Z,29.77
2023-03-18T03:40:28.622Z,30.65
2023-03-18T03:42:56.181Z,26.48
2023-03-18T03:45:25.298Z,25.80
2023-03-18T03:47:52.660Z,26.60
2023-03-18T03:50:22.949Z,25.90
2023-03-18T03:52:53.261Z,25.30
2023-03-18T03:55:22.790Z,25.75
2023-03-18T03:57:51.351Z,26.85
2023-03-18T04:00:22.583Z,21.33
2023-03-18T04:03:02.376Z,27.45
2023-03-18T04:05:30.674Z,28.48
2023-03-18T04:08:03.797Z,26.63
2023-03-18T04:10:31.323Z,25.40
2023-03-18T04:12:58.905Z,26.95
2023-03-18T04:15:27.925Z,24.85
2023-03-18T04:17:55.943Z,25.92
2023-03-18T04:20:25.562Z,21.95
2023-03-18T04:22:55.922Z,29.85
2023-03-18T04:25:25.789Z,26.25
2023-03-18T04:27:53.145Z,31.30
2023-03-18T04:30:20.787Z,24.27
2023-03-18T04:32:48.183Z,27.13
2023-03-18T04:35:16.387Z,30.48
2023-03-18T04:37:44.995Z,28.33
2023-03-18T04:40:17.513Z,29.40
2023-03-18T04:42:47.804Z,25.17
2023-03-18T04:45:16.303Z,29.85
2023-03-18T04:47:44.494Z,27.55
2023-03-18T04:50:15.549Z,27.00
2023-03-18T04:52:44.832Z,22.50
2023-03-18T04:55:14.219Z,25.63
2023-03-18T04:57:42.664Z,28.50
2023-03-18T05:00:13.309Z,28.25
2023-03-18T05:02:41.301Z,30.08
2023-03-18T05:05:09.252Z,29.05
2023-03-18T05:07:38.108Z,33.97
2023-03-18T05:10:09.525Z,31.02
2023-03-18T05:12:37.349Z,29.45
2023-03-18T05:15:06.263Z,35.40
2023-03-18T05:17:34.334Z,33.67
2023-03-18T05:20:01.780Z,31.02
2023-03-18T05:22:29.286Z,30.88
2023-03-18T05:24:56.674Z,29.75
2023-03-18T05:27:24.497Z,33.55
2023-03-18T05:29:51.835Z,31.90
2023-03-18T05:32:19.624Z,30.45
2023-03-18T05:34:47.202Z,29.80
2023-03-18T05:37:16.017Z,33.95
2023-03-18T05:39:44.921Z,27.95
2023-03-18T05:42:12.742Z,28.15
2023-03-18T05:44:40.653Z,28.50
2023-03-18T05:47:08.851Z,28.33
2023-03-18T05:49:36.761Z,33.08
2023-03-18T05:52:05.309Z,27.20
2023-03-18T05:54:35.037Z,33.17
2023-03-18T05:57:02.523Z,29.05
2023-03-18T05:59:30.308Z,34.28
2023-03-18T06:01:57.927Z,28.92
2023-03-18T06:04:29.811Z,32.53
2023-03-18T06:06:58.412Z,29.77
2023-03-18T06:09:28.541Z,32.17
2023-03-18T06:11:56.097Z,32.17
2023-03-18T06:14:29.261Z,30.88
2023-03-18T06:16:57.312Z,31.35
2023-03-18T06:19:25.871Z,34.63
2023-03-18T06:21:53.229Z,34.35
2023-03-18T06:24:23.588Z,31.58
2023-03-18T06:26:51.814Z,32.85
2023-03-18T06:29:20.022Z,31.23
2023-03-18T06:31:47.368Z,29.40
2023-03-18T06:34:14.872Z,27.73
2023-03-18T06:36:42.398Z,28.02
2023-03-18T06:39:10.745Z,29.13
2023-03-18T06:41:38.425Z,25.13
2023-03-18T06:44:06.176Z,24.42
2023-03-18T06:46:34.797Z,24.35
2023-03-18T06:49:02.685Z,28.35
2023-03-18T06:51:30.040Z,25.35
2023-03-18T06:53:57.445Z,24.92
2023-03-18T06:56:25.734Z,23.52
2023-03-18T06:58:53.062Z,21.55
2023-03-18T07:01:20.987Z,20.50
2023-03-18T07:03:50.028Z,22.08
2023-03-18T07:06:19.119Z,21.25
2023-03-18T07:08:47.190Z,22.00
2023-03-18T07:11:14.754Z,20.23
2023-03-18T07:13:42.291Z,25.20
2023-03-18T07:16:09.810Z,21.13
2023-03-18T07:18:40.621Z,19.60
2023-03-18T07:21:08.155Z,19.55
2023-03-18T07:23:37.360Z,16.92
2023-03-18T07:26:04.919Z,27.05
2023-03-18T07:28:32.840Z,19.20
2023-03-18T07:31:01.218Z,19.63
2023-03-18T07:33:29.055Z,18.20
2023-03-18T07:35:56.841Z,18.92
2023-03-18T07:38:24.444Z,16.48
2023-03-18T07:40:52.184Z,16.17
2023-03-18T07:43:19.523Z,16.23
2023-03-18T07:45:46.878Z,20.23
2023-03-18T07:48:14.400Z,18.63
2023-03-18T07:50:41.678Z,17.75
2023-03-18T07:53:09.047Z,17.58
2023-03-18T07:55:36.932Z,19.15
2023-03-18T07:58:04.866Z,18.90
2023-03-18T08:00:33.820Z,22.98
2023-03-18T08:03:31.023Z,22.55
2023-03-18T08:05:59.912Z,25.85
2023-03-18T08:08:28.504Z,22.88
2023-03-18T08:11:00.455Z,27.05
2023-03-18T08:13:30.674Z,26.77
2023-03-18T08:15:58.732Z,26.60
2023-03-18T08:18:26.589Z,31.48
2023-03-18T08:20:57.114Z,24.85
2023-03-18T08:23:27.327Z,26.67
2023-03-18T08:25:55.081Z,28.10
2023-03-18T08:28:22.478Z,31.27
2023-03-18T08:30:54.206Z,27.33
2023-03-18T08:35:52.245Z,25.75
2023-03-18T08:38:19.839Z,28.05
2023-03-18T08:40:48.356Z,27.77
2023-03-18T08:43:15.854Z,26.88
2023-03-18T08:45:43.992Z,27.23
2023-03-18T08:48:11.664Z,27.75
2023-03-18T08:50:39.236Z,25.52
2023-03-18T08:53:06.858Z,26.05
2023-03-18T08:55:41.498Z,27.70
2023-03-18T08:58:13.198Z,26.52
2023-03-18T09:00:45.448Z,28.33
2023-03-18T09:03:14.313Z,24.63
2023-03-18T09:05:42.152Z,25.52
2023-03-18T09:08:12.840Z,23.27
2023-03-18T09:10:49.716Z,24.92
2023-03-18T09:13:19.754Z,25.73
2023-03-18T09:15:50.930Z,25.33
2023-03-18T09:18:20.693Z,26.75
2023-03-18T09:20:52.172Z,24.83
2023-03-18T09:23:19.694Z,23.17
2023-03-18T09:25:47.399Z,24.75
2023-03-18T09:28:27.204Z,30.95
2023-03-18T09:31:00.631Z,27.40
2023-03-18T09:33:31.261Z,25.83
2023-03-18T09:36:01.195Z,22.77
2023-03-18T09:38:36.255Z,23.50
2023-03-18T09:41:24.926Z,21.60
2023-03-18T09:44:17.812Z,23.63
2023-03-18T09:47:01.188Z,20.45
2023-03-18T09:49:39.125Z,24.27
2023-03-18T09:52:22.524Z,23.05
2023-03-18T09:54:54.496Z,20.40
2023-03-18T09:57:30.791Z,22.33
2023-03-18T10:00:25.965Z,21.38
2023-03-18T10:03:28.186Z,25.75
2023-03-18T10:06:06.647Z,21.02
2023-03-18T10:08:57.212Z,21.27
2023-03-18T10:11:39.964Z,24.65
2023-03-18T10:14:36.340Z,25.10
2023-03-18T10:17:22.622Z,25.23
2023-03-18T10:19:55.885Z,21.38
2023-03-18T10:22:38.335Z,23.25
2023-03-18T10:25:23.550Z,19.75
2023-03-18T10:27:58.238Z,23.70
2023-03-18T10:30:51.555Z,23.58
2023-03-18T10:36:08.796Z,24.65
2023-03-18T10:38:38.328Z,23.90
2023-03-18T10:41:22.037Z,21.13
2023-03-18T10:43:56.112Z,25.10
2023-03-18T10:46:24.812Z,24.45
2023-03-18T10:49:08.013Z,18.83
2023-03-18T10:51:54.922Z,20.63
2023-03-18T10:54:34.295Z,20.45
2023-03-18T10:57:02.091Z,20.15
2023-03-18T10:59:30.067Z,24.58
2023-03-18T11:02:11.592Z,21.73
2023-03-18T11:04:57.975Z,19.95
2023-03-18T11:07:26.899Z,24.23
2023-03-18T11:09:54.988Z,19.52
2023-03-18T11:12:31.929Z,21.05
2023-03-18T11:14:59.283Z,19.83
2023-03-18T11:17:28.116Z,21.08
2023-03-18T11:20:17.036Z,24.33
2023-03-18T11:22:52.094Z,17.92
2023-03-18T11:25:26.678Z,19.92
2023-03-18T11:28:00.992Z,17.90
2023-03-18T11:30:34.909Z,21.40
2023-03-18T11:33:11.980Z,19.77
2023-03-18T11:35:52.818Z,23.42
2023-03-18T11:38:32.687Z,19.10
2023-03-18T11:41:18.117Z,16.80
2023-03-18T11:44:04.972Z,19.95
2023-03-18T11:46:41.218Z,19.95
2023-03-18T11:49:18.312Z,20.05
2023-03-18T11:52:14.194Z,21.05
2023-03-18T11:55:19.788Z,18.75
2023-03-18T11:58:02.148Z,15.68
2023-03-18T12:00:56.870Z,19.50
2023-03-18T12:03:50.638Z,16.60
2023-03-18T12:06:41.630Z,15.15
2023-03-18T12:09:34.713Z,14.95
2023-03-18T12:12:10.141Z,14.48
2023-03-18T12:15:01.106Z,17.40
2023-03-18T12:17:45.541Z,14.93
2023-03-18T12:20:21.684Z,16.25
2023-03-18T12:23:21.370Z,18.48
2023-03-18T12:25:52.362Z,12.85
2023-03-18T12:28:42.656Z,12.70
2023-03-18T12:31:25.148Z,12.05
2023-03-18T12:33:58.370Z,16.40
2023-03-18T12:36:44.531Z,14.38
2023-03-18T12:39:31.157Z,13.77
2023-03-18T12:41:58.642Z,14.63
2023-03-18T12:44:33.640Z,14.20
2023-03-18T12:47:15.288Z,13.27
2023-03-18T12:49:48.555Z,14.68
2023-03-18T12:52:43.924Z,16.55
2023-03-18T12:55:29.454Z,13.23
2023-03-18T12:58:20.232Z,12.35
2023-03-18T13:00:54.943Z,15.35
2023-03-18T13:03:26.750Z,11.27
2023-03-18T13:06:08.948Z,11.15
2023-03-18T13:09:00.844Z,8.83
2023-03-18T13:11:51.982Z,6.70
2023-03-18T13:14:31.465Z,8.48
2023-03-18T13:16:59.760Z,9.77
2023-03-18T13:19:27.487Z,10.27
2023-03-18T13:22:08.421Z,9.13
2023-03-18T13:25:02.578Z,7.85
2023-03-18T13:27:49.552Z,8.15
2023-03-18T13:30:25.640Z,9.07
2023-03-18T13:33:12.390Z,8.68
2023-03-18T13:35:55.255Z,8.38
2023-03-18T13:38:44.380Z,7.20
2023-03-18T13:41:25.584Z,5.93
2023-03-18T13:43:53.488Z,8.18
2023-03-18T13:46:24.865Z,6.07
2023-03-18T13:49:00.334Z,4.93
2023-03-18T13:51:28.709Z,4.93
2023-03-18T13:54:01.681Z,5.75
2023-03-18T13:56:53.833Z,4.43
2023-03-18T13:59:33.533Z,4.68
2023-03-18T14:02:31.493Z,4.80
2023-03-18T14:05:00.955Z,6.15
2023-03-18T14:07:32.144Z,6.25
2023-03-18T14:10:17.884Z,4.13
2023-03-18T14:12:47.494Z,3.83
2023-03-18T14:15:15.958Z,4.05
2023-03-18T14:17:48.802Z,3.55
2023-03-18T14:22:49.858Z,4.65
2023-03-18T14:25:24.446Z,2.50
2023-03-18T14:28:18.783Z,4.50
2023-03-18T14:30:53.323Z,3.03
2023-03-18T14:33:20.810Z,7.57
2023-03-18T14:36:02.260Z,4.93
2023-03-18T14:38:42.928Z,4.55
2023-03-18T14:41:22.727Z,4.65
2023-03-18T14:43:55.006Z,7.32
2023-03-18T14:46:32.184Z,4.70
2023-03-18T14:48:59.788Z,5.15
2023-03-18T14:51:29.122Z,6.72
2023-03-18T14:54:10.845Z,5.03
2023-03-18T14:56:42.536Z,5.68
2023-03-18T14:59:15.478Z,4.57
2023-03-18T15:01:46.823Z,5.60
2023-03-18T15:04:25.744Z,5.55
2023-03-18T15:06:54.684Z,4.30
2023-03-18T15:09:25.672Z,5.15
2023-03-18T15:11:53.928Z,4.85
2023-03-18T15:14:26.133Z,6.22
2023-03-18T15:16:59.958Z,5.28
2023-03-18T15:19:29.291Z,8.50
2023-03-18T15:21:58.983Z,5.10
2023-03-18T15:24:27.928Z,8.00
2023-03-18T15:26:59.229Z,6.35
2023-03-18T15:29:33.390Z,4.75
2023-03-18T15:32:18.526Z,3.30
2023-03-18T15:34:52.930Z,3.53
2023-03-18T15:37:42.097Z,4.05
2023-03-18T15:40:32.302Z,4.53
2023-03-18T15:43:04.863Z,4.47
2023-03-18T15:45:34.173Z,6.13
2023-03-18T15:48:08.346Z,5.25
2023-03-18T15:50:37.415Z,5.72
2023-03-18T15:53:18.322Z,5.03
2023-03-18T15:55:58.768Z,3.53
2023-03-18T15:58:36.087Z,4.68
2023-03-18T16:01:04.473Z,3.85
2023-03-18T16:03:35.618Z,3.35
2023-03-18T16:06:03.618Z,4.00
2023-03-18T16:08:31.700Z,5.63
2023-03-18T16:11:02.535Z,5.22
2023-03-18T16:13:32.647Z,6.22
2023-03-18T16:16:00.345Z,4.13
2023-03-18T16:18:27.712Z,4.88
2023-03-18T16:20:58.708Z,4.40
2023-03-18T16:23:26.323Z,8.73
2023-03-18T16:25:55.455Z,4.40
2023-03-18T16:28:25.909Z,3.88
2023-03-18T16:30:55.883Z,4.15
2023-03-18T16:33:24.205Z,5.63
2023-03-18T16:36:00.537Z,6.00
2023-03-18T16:38:28.830Z,4.82
2023-03-18T16:40:58.356Z,4.63
2023-03-18T16:46:17.763Z,5.03
2023-03-18T16:48:45.160Z,5.07
2023-03-18T16:51:13.083Z,5.18
2023-03-18T16:53:40.610Z,5.70
2023-03-18T16:56:17.273Z,6.53
2023-03-18T16:58:45.463Z,4.80
2023-03-18T17:01:16.539Z,6.70
2023-03-18T17:03:44.305Z,6.70
2023-03-18T17:06:12.729Z,6.80
2023-03-18T17:08:40.239Z,3.90
2023-03-18T17:11:07.989Z,4.85
2023-03-18T17:13:38.268Z,4.30
2023-03-18T17:16:05.897Z,5.22
2023-03-18T17:18:33.424Z,3.58
2023-03-18T17:21:03.547Z,5.97
2023-03-18T17:23:30.962Z,4.70
2023-03-18T17:25:59.682Z,5.97
2023-03-18T17:28:34.608Z,4.47
2023-03-18T17:31:02.331Z,6.53
2023-03-18T17:33:31.821Z,6.65
2023-03-18T17:36:01.596Z,6.25
2023-03-18T17:38:31.230Z,5.32
2023-03-18T17:40:59.659Z,5.80
2023-03-18T17:43:39.566Z,5.07
2023-03-18T17:46:07.739Z,6.25
2023-03-18T17:48:48.435Z,5.30
2023-03-18T17:51:25.084Z,5.57
2023-03-18T17:54:03.449Z,5.50
2023-03-18T17:56:36.828Z,6.93
2023-03-18T17:59:13.874Z,5.32
2023-03-18T18:04:27.988Z,8.07
2023-03-18T18:06:56.347Z,5.30
2023-03-18T18:09:23.851Z,4.50
2023-03-18T18:11:52.034Z,5.35
2023-03-18T18:14:32.166Z,5.25
2023-03-18T18:16:59.748Z,8.90
2023-03-18T18:19:27.292Z,7.65
2023-03-18T18:22:03.795Z,6.65
2023-03-18T18:24:34.591Z,6.72
2023-03-18T18:27:02.928Z,6.95
2023-03-18T18:29:30.300Z,8.10
2023-03-18T18:31:57.943Z,5.75
2023-03-18T18:34:25.732Z,7.82
2023-03-18T18:36:53.293Z,7.40
2023-03-18T18:39:21.255Z,7.05
2023-03-18T18:41:48.704Z,9.20
2023-03-18T18:44:16.217Z,8.05
2023-03-18T18:46:43.770Z,6.32
2023-03-18T18:49:24.672Z,9.77
2023-03-18T18:51:56.911Z,9.73
2023-03-18T18:54:25.160Z,9.25
2023-03-18T18:56:52.767Z,8.25
2023-03-18T18:59:27.561Z,7.93
2023-03-18T19:01:56.424Z,8.98
2023-03-18T19:04:39.559Z,9.88
2023-03-18T19:09:49.096Z,10.63
2023-03-18T19:23:50.987Z,7.80
2023-03-18T19:29:03.906Z,7.93
2023-03-18T19:31:32.237Z,6.10
2023-03-18T19:34:00.671Z,8.73
2023-03-18T19:36:40.496Z,5.72
2023-03-18T19:39:15.580Z,9.80
2023-03-18T19:41:45.115Z,10.18
2023-03-18T19:44:36.252Z,10.98
2023-03-18T19:47:59.714Z,10.50
2023-03-18T19:51:04.313Z,11.00
2023-03-18T19:56:34.040Z,7.68
2023-03-18T19:59:11.100Z,9.07
2023-03-18T20:04:38.189Z,6.15
2023-03-18T20:07:06.441Z,7.57
2023-03-18T20:09:33.837Z,5.53
2023-03-18T20:12:05.703Z,7.15
2023-03-18T20:14:38.388Z,6.57
2023-03-18T20:17:40.492Z,6.35
2023-03-18T20:20:30.240Z,5.55
2023-03-18T20:23:36.954Z,6.57
2023-03-18T20:26:27.219Z,4.53
2023-03-18T20:28:56.711Z,4.15
2023-03-18T20:31:59.357Z,7.18
2023-03-18T20:34:37.518Z,4.63
2023-03-18T20:40:33.963Z,4.22
2023-03-18T20:43:07.028Z,4.20
2023-03-18T20:45:39.616Z,2.95
2023-03-18T20:48:13.251Z,5.00
2023-03-18T20:50:43.751Z,3.05
2023-03-18T20:56:07.838Z,3.58
2023-03-18T20:58:35.465Z,3.88
2023-03-18T21:01:03.827Z,4.18
2023-03-18T21:03:33.577Z,3.03
2023-03-18T21:06:03.565Z,3.50
2023-03-18T21:08:32.942Z,4.72
2023-03-18T21:11:02.207Z,2.92
2023-03-18T21:13:36.195Z,3.45
2023-03-18T21:16:06.052Z,3.05
2023-03-18T21:18:35.887Z,3.13
2023-03-18T21:21:04.493Z,2.67
2023-03-18T21:23:37.391Z,3.53
2023-03-18T21:31:34.894Z,3.25
2023-03-18T21:34:12.662Z,3.13
2023-03-18T21:36:56.702Z,3.17
2023-03-18T21:39:32.723Z,3.90
2023-03-18T21:42:01.510Z,4.07
2023-03-18T21:44:28.874Z,4.60
2023-03-18T21:46:56.328Z,6.00
2023-03-18T21:49:23.698Z,5.45
2023-03-18T21:51:53.412Z,3.35
2023-03-18T21:54:22.272Z,3.65
2023-03-18T21:56:51.197Z,4.32
2023-03-18T21:59:18.645Z,2.75
2023-03-18T22:01:46.232Z,4.10
2023-03-18T22:04:14.227Z,2.47
2023-03-18T22:06:41.669Z,4.30
2023-03-18T22:09:09.833Z,7.13
2023-03-18T22:11:37.301Z,4.05
2023-03-18T22:14:04.941Z,4.15
2023-03-18T22:16:32.427Z,4.57
2023-03-18T22:18:59.896Z,6.07
2023-03-18T22:21:28.437Z,5.53
2023-03-18T22:23:58.216Z,3.60
2023-03-18T22:26:26.012Z,4.28
2023-03-18T22:28:53.366Z,3.97
2023-03-18T22:31:26.566Z,6.95
2023-03-18T22:33:57.584Z,5.00
2023-03-18T22:36:27.548Z,5.70
2023-03-18T22:38:55.216Z,6.03
2023-03-18T22:41:25.474Z,3.65
2023-03-18T22:43:55.295Z,5.65
2023-03-18T22:46:22.631Z,8.02
2023-03-18T22:48:50.418Z,4.38
2023-03-18T22:51:39.177Z,4.43
2023-03-18T22:54:07.610Z,5.57
2023-03-18T22:56:35.017Z,4.70
2023-03-18T22:59:04.559Z,6.78
2023-03-18T23:01:32.017Z,6.63
2023-03-18T23:04:00.180Z,7.95
2023-03-18T23:06:28.493Z,5.43
2023-03-18T23:08:56.014Z,7.10
2023-03-18T23:11:23.394Z,8.02
2023-03-18T23:13:52.282Z,8.65
2023-03-18T23:16:21.943Z,5.72
2023-03-18T23:18:50.613Z,7.20
2023-03-18T23:21:22.709Z,5.97
2023-03-18T23:23:50.573Z,8.17
2023-03-18T23:26:18.092Z,7.22
2023-03-18T23:28:45.968Z,7.18
2023-03-18T23:31:15.126Z,8.45
2023-03-18T23:33:42.977Z,6.85
2023-03-18T23:36:10.632Z,5.25
2023-03-18T23:38:38.220Z,7.03
2023-03-18T23:41:06.214Z,7.22
2023-03-18T23:43:33.664Z,6.53
2023-03-18T23:46:02.303Z,8.05
2023-03-18T23:48:29.802Z,8.23
2023-03-18T23:50:57.185Z,8.68
2023-03-18T23:53:24.680Z,8.15
2023-03-18T23:55:52.686Z,10.50
2023-03-18T23:58:20.218Z,7.25
